Time;durP1;ratioP1;P1;durP2;ratioP2;P2;SDS_P1;SDS_P2;PMS_P1;PMS_P2;Temp;Humidity;BMP_temperature;BMP_pressure;BME280_temperature;BME280_humidity;BME280_pressure;Samples;Min_cycle;Max_cycle;Signal;HPM_P1;HPM_P2
2022/02/27 00:02:17;;;;;;;17.27;4.70;;;0.50;99.70;;;;;;5073449;28;20447;-59
2022/02/27 00:04:44;;;;;;;9.63;4.50;;;0.50;99.70;;;;;;5073342;28;20825;-63
2022/02/27 00:07:10;;;;;;;12.97;4.90;;;0.50;99.70;;;;;;5073171;28;20529;-60
2022/02/27 00:09:38;;;;;;;17.60;5.30;;;0.40;99.70;;;;;;5073203;28;20450;-60
2022/02/27 00:12:06;;;;;;;16.30;4.97;;;0.30;99.70;;;;;;5073187;28;20439;-60
2022/02/27 00:14:32;;;;;;;19.10;6.10;;;0.40;99.70;;;;;;5073027;28;20490;-60
2022/02/27 00:16:59;;;;;;;21.50;5.90;;;0.50;99.70;;;;;;5072949;28;20868;-61
2022/02/27 00:19:26;;;;;;;13.47;4.73;;;0.60;99.70;;;;;;5072902;28;20443;-59
2022/02/27 00:21:52;;;;;;;12.33;4.30;;;0.60;99.70;;;;;;5073068;28;20438;-61
2022/02/27 00:24:19;;;;;;;16.17;4.80;;;0.60;99.70;;;;;;5072909;28;20438;-60
2022/02/27 00:26:47;;;;;;;12.03;4.60;;;0.50;99.70;;;;;;5072616;28;20823;-61
2022/02/27 00:29:14;;;;;;;12.40;4.87;;;0.50;99.70;;;;;;5072713;28;20446;-61
2022/02/27 00:31:41;;;;;;;8.60;4.13;;;0.40;99.70;;;;;;5072836;28;20454;-61
2022/02/27 00:34:08;;;;;;;9.77;4.33;;;0.40;99.70;;;;;;5072108;28;20486;-62
2022/02/27 00:36:35;;;;;;;12.50;5.00;;;0.30;99.70;;;;;;5072322;28;20964;-61
2022/02/27 00:39:02;;;;;;;13.73;4.33;;;0.30;99.70;;;;;;5072419;28;20447;-60
2022/02/27 00:41:28;;;;;;;11.33;4.43;;;0.40;99.70;;;;;;5072601;28;20447;-63
2022/02/27 00:43:56;;;;;;;11.23;4.37;;;0.40;99.70;;;;;;5072428;28;20442;-60
2022/02/27 00:46:23;;;;;;;11.40;4.60;;;0.40;99.70;;;;;;5072301;28;20469;-61
2022/02/27 00:48:50;;;;;;;10.27;4.20;;;0.30;99.70;;;;;;5072281;28;20466;-63
2022/02/27 00:51:16;;;;;;;11.87;3.93;;;0.20;99.70;;;;;;5072323;28;20442;-61
2022/02/27 00:53:43;;;;;;;9.63;4.17;;;0.30;99.70;;;;;;5072203;28;20481;-63
2022/02/27 00:56:10;;;;;;;13.17;4.30;;;0.30;99.70;;;;;;5072098;28;20470;-61
2022/02/27 00:58:36;;;;;;;15.80;4.27;;;0.20;99.70;;;;;;5071915;28;20751;-60
2022/02/27 01:01:04;;;;;;;12.70;4.37;;;0.20;99.70;;;;;;5071416;28;20450;-61
2022/02/27 01:03:31;;;;;;;9.83;4.90;;;0.20;99.70;;;;;;5072004;28;20451;-61
2022/02/27 01:05:58;;;;;;;9.67;3.77;;;0.20;99.70;;;;;;5071658;28;20482;-60
2022/02/27 01:08:24;;;;;;;13.17;4.40;;;0.20;99.70;;;;;;5071687;28;20557;-62
2022/02/27 01:10:51;;;;;;;10.57;4.00;;;0.10;99.70;;;;;;5072164;28;20821;-61
2022/02/27 01:13:18;;;;;;;11.20;4.60;;;0.20;99.70;;;;;;5071878;28;20451;-62
2022/02/27 01:15:44;;;;;;;11.80;4.60;;;0.60;99.70;;;;;;5071303;28;20469;-63
2022/02/27 01:18:12;;;;;;;13.80;4.07;;;1.00;99.70;;;;;;5071519;28;20434;-61
2022/02/27 01:20:39;;;;;;;10.10;4.70;;;0.60;99.70;;;;;;5071710;28;20446;-61
2022/02/27 01:23:06;;;;;;;12.17;4.47;;;0.40;99.70;;;;;;5071536;28;20504;-61
2022/02/27 01:25:33;;;;;;;14.33;4.70;;;0.30;99.70;;;;;;5071455;28;20454;-60
2022/02/27 01:27:59;;;;;;;14.03;3.93;;;0.10;99.70;;;;;;5071470;28;20556;-60
2022/02/27 01:30:26;;;;;;;10.10;4.60;;;0.10;99.70;;;;;;5071620;28;20817;-63
2022/02/27 01:32:53;;;;;;;10.70;4.10;;;0.00;99.70;;;;;;5071465;28;20438;-61
2022/02/27 01:35:21;;;;;;;14.93;4.50;;;0.10;99.70;;;;;;5070506;28;21041;-63
2022/02/27 01:37:47;;;;;;;13.50;4.80;;;0.30;99.70;;;;;;5071064;28;20453;-63
2022/02/27 01:40:14;;;;;;;14.80;5.00;;;0.30;99.70;;;;;;5071326;28;20447;-63
2022/02/27 01:42:41;;;;;;;11.30;4.53;;;0.10;99.70;;;;;;5071331;28;20454;-63
2022/02/27 01:45:09;;;;;;;19.50;5.80;;;0.10;99.70;;;;;;5071102;28;20466;-60
2022/02/27 01:47:36;;;;;;;15.80;6.53;;;0.10;99.70;;;;;;5071308;28;20790;-60
2022/02/27 01:50:04;;;;;;;18.07;6.53;;;0.10;99.70;;;;;;5071032;28;20457;-62
2022/02/27 01:52:33;;;;;;;22.77;7.43;;;0.10;99.70;;;;;;5070858;28;20446;-60
2022/02/27 01:54:59;;;;;;;19.07;7.23;;;0.00;99.70;;;;;;5070654;28;20483;-60
2022/02/27 01:57:26;;;;;;;20.00;8.20;;;0.00;99.70;;;;;;5071058;28;20447;-58
2022/02/27 01:59:54;;;;;;;22.40;8.60;;;0.00;99.70;;;;;;5070149;28;20447;-60
2022/02/27 02:02:21;;;;;;;19.00;7.17;;;0.00;99.70;;;;;;5071071;28;20962;-59
2022/02/27 02:04:47;;;;;;;24.20;8.80;;;0.40;99.70;;;;;;5070689;28;20882;-60
2022/02/27 02:07:14;;;;;;;14.90;6.10;;;0.50;99.70;;;;;;5070881;28;20447;-60
2022/02/27 02:09:42;;;;;;;13.53;6.33;;;0.50;99.70;;;;;;5070916;28;20493;-58
2022/02/27 02:12:11;;;;;;;16.50;6.30;;;0.40;99.70;;;;;;5070801;28;20819;-59
2022/02/27 02:14:38;;;;;;;18.27;6.80;;;0.20;99.70;;;;;;5070636;28;20532;-57
2022/02/27 02:17:05;;;;;;;12.90;6.00;;;0.20;99.70;;;;;;5070627;28;20872;-64
2022/02/27 02:19:32;;;;;;;13.27;4.83;;;0.10;99.70;;;;;;5070733;28;20438;-56
2022/02/27 02:22:02;;;;;;;17.13;4.20;;;0.20;99.70;;;;;;5070834;28;20926;-59
2022/02/27 02:24:29;;;;;;;11.23;3.93;;;0.30;99.70;;;;;;5070619;28;20434;-59
2022/02/27 02:26:56;;;;;;;13.40;4.30;;;0.30;99.70;;;;;;5070622;28;20455;-57
2022/02/27 02:29:24;;;;;;;12.70;4.03;;;0.10;99.70;;;;;;5070431;28;20443;-58
2022/02/27 02:31:52;;;;;;;12.50;4.67;;;0.00;99.70;;;;;;5070768;28;20938;-58
2022/02/27 02:34:22;;;;;;;10.13;3.77;;;-0.10;99.70;;;;;;5069969;28;21009;-60
2022/02/27 02:36:49;;;;;;;14.00;4.73;;;-0.10;99.70;;;;;;5070476;28;20930;-56
2022/02/27 02:39:19;;;;;;;13.57;5.80;;;0.10;99.70;;;;;;5070392;28;20767;-59
2022/02/27 02:41:46;;;;;;;12.10;5.63;;;-0.10;99.70;;;;;;5070812;28;20447;-61
2022/02/27 02:44:14;;;;;;;16.70;5.80;;;0.10;99.70;;;;;;5070461;28;20453;-59
2022/02/27 02:46:41;;;;;;;19.23;6.67;;;0.10;99.70;;;;;;5070238;28;20842;-57
2022/02/27 02:49:10;;;;;;;19.47;7.17;;;0.50;99.70;;;;;;5070224;28;20447;-62
2022/02/27 02:51:37;;;;;;;14.83;6.33;;;0.30;99.70;;;;;;5070664;28;20461;-58
2022/02/27 02:54:05;;;;;;;20.63;8.23;;;0.20;99.70;;;;;;5070425;28;20471;-59
2022/02/27 02:56:33;;;;;;;11.87;4.17;;;0.30;99.70;;;;;;5070248;28;20533;-58
2022/02/27 02:59:00;;;;;;;16.10;4.73;;;0.20;99.70;;;;;;5070160;28;20450;-59
2022/02/27 03:01:28;;;;;;;18.40;4.50;;;0.50;99.70;;;;;;5069581;28;20447;-58
2022/02/27 03:03:56;;;;;;;9.47;3.90;;;0.30;99.70;;;;;;5070381;28;20446;-57
2022/02/27 03:06:23;;;;;;;9.63;4.00;;;0.60;99.70;;;;;;5074037;28;20469;-56
2022/02/27 03:08:50;;;;;;;19.17;4.77;;;0.70;99.70;;;;;;5073976;28;20952;-58
2022/02/27 03:11:18;;;;;;;8.00;4.37;;;0.80;99.70;;;;;;5074106;28;20446;-58
2022/02/27 03:13:47;;;;;;;10.30;4.00;;;0.60;99.70;;;;;;5074080;28;20446;-60
2022/02/27 03:16:14;;;;;;;13.00;3.80;;;0.60;99.70;;;;;;5073568;28;20496;-59
2022/02/27 03:18:41;;;;;;;9.27;3.77;;;0.30;99.70;;;;;;5073883;28;20469;-59
2022/02/27 03:21:08;;;;;;;10.40;4.10;;;0.50;99.70;;;;;;5073850;28;21442;-61
2022/02/27 03:23:35;;;;;;;11.30;3.80;;;0.40;99.70;;;;;;5073986;28;20965;-60
2022/02/27 03:26:03;;;;;;;12.53;4.07;;;0.40;99.70;;;;;;5073465;28;20459;-60
2022/02/27 03:28:30;;;;;;;16.60;4.80;;;0.60;99.70;;;;;;5073631;28;20439;-60
2022/02/27 03:30:58;;;;;;;12.23;4.70;;;0.70;99.70;;;;;;5073800;28;20439;-61
2022/02/27 03:33:25;;;;;;;13.17;4.00;;;0.60;99.70;;;;;;5073895;28;20446;-62
2022/02/27 03:35:51;;;;;;;11.47;4.00;;;0.80;99.70;;;;;;5072775;28;20535;-61
2022/02/27 03:38:18;;;;;;;9.20;4.10;;;0.90;99.70;;;;;;5073462;28;20442;-60
2022/02/27 03:40:45;;;;;;;12.13;4.23;;;0.80;99.70;;;;;;5073609;28;20450;-60
2022/02/27 03:43:11;;;;;;;12.00;4.00;;;0.90;99.70;;;;;;5073592;28;20447;-60
2022/02/27 03:45:38;;;;;;;11.00;3.90;;;0.90;99.70;;;;;;5073007;28;20463;-60
2022/02/27 03:48:06;;;;;;;12.33;4.07;;;0.70;99.70;;;;;;5073399;28;20443;-61
2022/02/27 03:50:33;;;;;;;9.40;3.80;;;0.50;99.70;;;;;;5073334;28;20442;-60
2022/02/27 03:53:00;;;;;;;12.07;4.03;;;0.50;99.70;;;;;;5073447;28;20451;-61
2022/02/27 03:55:27;;;;;;;11.00;5.00;;;0.40;99.70;;;;;;5072887;28;20478;-60
2022/02/27 03:57:53;;;;;;;9.97;4.60;;;0.20;99.70;;;;;;5073208;28;20447;-59
2022/02/27 04:00:20;;;;;;;10.93;4.27;;;0.10;99.70;;;;;;5072475;28;20857;-57
2022/02/27 04:02:47;;;;;;;11.70;4.67;;;0.00;99.70;;;;;;5073287;28;20430;-59
2022/02/27 04:05:18;;;;;;;12.93;5.00;;;0.00;99.70;;;;;;5072902;28;20831;-56
2022/02/27 04:07:45;;;;;;;10.17;4.10;;;-0.10;99.70;;;;;;5072981;28;20466;-59
2022/02/27 04:10:13;;;;;;;13.13;4.07;;;-0.20;99.70;;;;;;5073156;28;20446;-59
2022/02/27 04:12:40;;;;;;;9.37;4.00;;;-0.30;99.70;;;;;;5073121;28;20454;-60
2022/02/27 04:15:08;;;;;;;10.83;3.90;;;-0.40;99.70;;;;;;5071950;28;20934;-58
2022/02/27 04:17:35;;;;;;;12.43;3.83;;;-0.40;99.70;;;;;;5072977;28;20451;-60
2022/02/27 04:20:02;;;;;;;8.87;3.80;;;-0.40;99.70;;;;;;5072906;28;20439;-61
2022/02/27 04:22:30;;;;;;;17.10;4.43;;;-0.40;99.70;;;;;;5072924;28;20446;-56
2022/02/27 04:24:57;;;;;;;7.40;3.73;;;-0.40;99.70;;;;;;5072509;28;20516;-60
2022/02/27 04:27:24;;;;;;;8.70;4.17;;;-0.30;99.70;;;;;;5072644;28;20545;-61
2022/02/27 04:29:50;;;;;;;12.53;4.03;;;-0.30;99.70;;;;;;5072656;28;20447;-60
2022/02/27 04:32:17;;;;;;;10.77;4.43;;;-0.40;99.70;;;;;;5072668;28;20447;-60
2022/02/27 04:34:44;;;;;;;9.50;4.07;;;-0.40;99.70;;;;;;5072057;28;20483;-58
2022/02/27 04:37:11;;;;;;;14.67;4.70;;;-0.30;99.70;;;;;;5072429;28;20439;-59
2022/02/27 04:39:39;;;;;;;10.13;4.50;;;-0.40;99.70;;;;;;5072485;28;20933;-59
2022/02/27 04:42:06;;;;;;;11.80;4.20;;;-0.40;99.70;;;;;;5072482;28;20488;-59
2022/02/27 04:44:32;;;;;;;12.37;4.33;;;-0.40;99.70;;;;;;5072298;28;20467;-60
2022/02/27 04:46:59;;;;;;;8.50;4.53;;;-0.40;99.70;;;;;;5072040;28;20493;-56
2022/02/27 04:49:26;;;;;;;9.37;4.10;;;0.20;99.70;;;;;;5072163;28;20834;-60
2022/02/27 04:51:53;;;;;;;9.67;4.60;;;0.00;99.70;;;;;;5072212;28;20506;-60
2022/02/27 04:54:19;;;;;;;13.73;4.50;;;0.20;99.70;;;;;;5072156;28;20959;-59
2022/02/27 04:56:47;;;;;;;11.30;4.23;;;0.10;99.70;;;;;;5071928;28;20445;-60
2022/02/27 04:59:14;;;;;;;10.63;4.50;;;0.20;99.70;;;;;;5071255;28;20439;-60
2022/02/27 05:01:41;;;;;;;13.70;4.67;;;0.10;99.70;;;;;;5072002;28;20447;-59
2022/02/27 05:04:08;;;;;;;9.10;4.30;;;-0.20;99.70;;;;;;5072201;28;20451;-59
2022/02/27 05:06:34;;;;;;;9.07;4.40;;;-0.10;99.70;;;;;;5071607;28;20463;-62
2022/02/27 05:09:01;;;;;;;11.57;4.67;;;-0.20;99.70;;;;;;5071886;28;20508;-62
2022/02/27 05:11:28;;;;;;;9.07;4.63;;;-0.40;99.70;;;;;;5071783;28;20447;-60
2022/02/27 05:13:56;;;;;;;13.50;4.87;;;-0.30;99.70;;;;;;5071806;28;20536;-60
2022/02/27 05:16:23;;;;;;;17.77;4.87;;;-0.40;99.70;;;;;;5072513;28;20494;-59
2022/02/27 05:18:50;;;;;;;17.50;5.30;;;-0.60;99.70;;;;;;5070814;28;20450;-61
2022/02/27 05:21:16;;;;;;;10.10;4.30;;;-0.60;99.70;;;;;;5071640;28;20442;-59
2022/02/27 05:23:44;;;;;;;15.80;4.77;;;-0.60;99.70;;;;;;5071730;28;20438;-59
2022/02/27 05:26:11;;;;;;;13.00;4.20;;;-0.60;99.70;;;;;;5071287;28;20462;-60
2022/02/27 05:28:38;;;;;;;12.03;4.80;;;-0.80;99.70;;;;;;5070441;28;20816;-61
2022/02/27 05:31:06;;;;;;;13.07;5.10;;;-0.70;99.70;;;;;;5071719;28;20447;-59
2022/02/27 05:33:32;;;;;;;10.70;4.50;;;-0.70;99.70;;;;;;5071335;28;20848;-60
2022/02/27 05:35:59;;;;;;;13.57;4.77;;;-0.70;99.70;;;;;;5070695;28;20479;-60
2022/02/27 05:38:26;;;;;;;9.23;4.37;;;-0.70;99.70;;;;;;5071121;28;20453;-60
2022/02/27 05:40:53;;;;;;;9.20;4.27;;;-0.70;99.70;;;;;;5071454;28;21033;-59
2022/02/27 05:43:19;;;;;;;11.23;4.23;;;-0.80;99.70;;;;;;5071232;28;20443;-57
2022/02/27 05:45:46;;;;;;;8.27;4.17;;;-0.80;99.70;;;;;;5070990;28;20474;-60
2022/02/27 05:48:14;;;;;;;13.17;4.13;;;-0.80;99.70;;;;;;5070976;28;20442;-62
2022/02/27 05:50:41;;;;;;;14.37;4.70;;;-0.80;99.70;;;;;;5071194;28;20500;-57
2022/02/27 05:53:08;;;;;;;13.00;4.87;;;-0.90;99.70;;;;;;5071109;28;20443;-59
2022/02/27 05:55:34;;;;;;;14.53;4.70;;;-0.90;99.70;;;;;;5070681;28;20480;-57
2022/02/27 05:58:02;;;;;;;10.23;4.43;;;-0.90;99.70;;;;;;5070808;28;20469;-58
2022/02/27 06:00:29;;;;;;;9.33;4.70;;;-0.90;99.70;;;;;;5070253;28;20446;-58
2022/02/27 06:02:55;;;;;;;11.87;4.77;;;-1.00;99.70;;;;;;5071143;28;20803;-60
2022/02/27 06:05:24;;;;;;;12.17;4.53;;;-0.90;99.70;;;;;;5070660;28;20470;-59
2022/02/27 06:07:50;;;;;;;14.40;4.77;;;-0.90;99.70;;;;;;5070791;28;20867;-61
2022/02/27 06:10:17;;;;;;;13.43;4.50;;;-0.90;99.70;;;;;;5070979;28;20443;-59
2022/02/27 06:12:48;;;;;;;17.90;5.67;;;-0.90;99.70;;;;;;5070804;28;20442;-59
2022/02/27 06:15:15;;;;;;;12.00;4.50;;;-0.90;99.70;;;;;;5070524;28;20514;-61
2022/02/27 06:17:41;;;;;;;16.60;4.90;;;-0.90;99.70;;;;;;5070605;28;20439;-59
2022/02/27 06:20:10;;;;;;;17.17;5.57;;;-0.90;99.70;;;;;;5070705;28;20446;-59
2022/02/27 06:22:41;;;;;;;11.73;5.83;;;-0.90;99.70;;;;;;5070870;28;20442;-60
2022/02/27 06:25:09;;;;;;;12.43;5.00;;;-0.80;99.70;;;;;;5070461;28;20463;-60
2022/02/27 06:27:40;;;;;;;14.63;6.43;;;-0.80;99.70;;;;;;5070517;28;20496;-58
2022/02/27 06:30:08;;;;;;;14.93;5.60;;;-0.70;99.70;;;;;;5070824;28;20457;-60
2022/02/27 06:32:35;;;;;;;17.60;5.20;;;-0.80;99.70;;;;;;5070720;28;20450;-58
2022/02/27 06:35:01;;;;;;;12.70;5.07;;;-0.50;99.70;;;;;;5070081;28;20843;-60
2022/02/27 06:37:28;;;;;;;10.10;5.20;;;-0.60;99.70;;;;;;5070667;28;20450;-60
2022/02/27 06:39:56;;;;;;;14.13;5.10;;;-0.60;99.70;;;;;;5073876;28;20442;-59
2022/02/27 06:42:23;;;;;;;12.90;5.43;;;-0.60;99.70;;;;;;5074791;28;20449;-60
2022/02/27 06:44:50;;;;;;;9.93;6.13;;;-0.50;99.70;;;;;;5074497;28;20466;-60
2022/02/27 06:47:17;;;;;;;11.80;5.07;;;-0.60;99.70;;;;;;5074540;28;20447;-58
2022/02/27 06:49:44;;;;;;;11.77;5.37;;;-0.60;99.70;;;;;;5074548;28;20465;-60
2022/02/27 06:52:11;;;;;;;14.47;5.37;;;-0.60;99.70;;;;;;5074677;28;20458;-61
2022/02/27 06:54:38;;;;;;;17.57;5.73;;;-0.50;99.70;;;;;;5074465;28;20508;-60
2022/02/27 06:57:06;;;;;;;20.53;7.10;;;0.00;99.70;;;;;;5074137;28;20478;-58
2022/02/27 06:59:33;;;;;;;18.03;6.53;;;0.10;99.70;;;;;;5073701;28;20756;-59
2022/02/27 07:01:59;;;;;;;15.23;5.87;;;0.10;99.70;;;;;;5074538;28;20442;-59
2022/02/27 07:04:26;;;;;;;17.77;6.30;;;0.20;99.70;;;;;;5074313;28;20447;-60
2022/02/27 07:06:53;;;;;;;11.97;5.07;;;0.30;99.70;;;;;;5074285;28;20446;-60
2022/02/27 07:09:21;;;;;;;12.00;5.20;;;0.20;99.70;;;;;;5074019;28;20439;-62
2022/02/27 07:11:48;;;;;;;12.50;5.53;;;0.20;99.70;;;;;;5074226;28;20497;-60
2022/02/27 07:14:16;;;;;;;18.27;5.77;;;0.70;99.70;;;;;;5074068;28;20450;-60
2022/02/27 07:16:43;;;;;;;17.53;5.47;;;0.40;99.70;;;;;;5070728;28;20498;-60
2022/02/27 07:19:09;;;;;;;12.67;5.60;;;0.20;99.70;;;;;;5071430;28;21152;-59
2022/02/27 07:21:36;;;;;;;15.40;5.77;;;0.10;99.70;;;;;;5073892;28;20843;-57
2022/02/27 07:24:04;;;;;;;12.27;5.60;;;0.40;99.70;;;;;;5073871;28;20462;-58
2022/02/27 07:26:31;;;;;;;14.50;6.30;;;0.20;99.70;;;;;;5073490;28;21014;-59
2022/02/27 07:28:57;;;;;;;14.70;6.93;;;0.30;99.70;;;;;;5073955;28;20443;-60
2022/02/27 07:31:25;;;;;;;17.97;6.70;;;0.50;99.70;;;;;;5068735;28;20477;-56
2022/02/27 07:33:52;;;;;;;12.43;6.47;;;0.60;99.70;;;;;;5073590;28;20438;-57
2022/02/27 07:36:20;;;;;;;15.07;6.30;;;1.00;99.70;;;;;;5069537;28;20904;-56
2022/02/27 07:38:47;;;;;;;19.67;6.83;;;1.20;99.70;;;;;;5070049;28;20451;-56
2022/02/27 07:41:13;;;;;;;17.00;6.67;;;1.30;99.70;;;;;;5073989;28;20514;-63
2022/02/27 07:43:40;;;;;;;14.23;6.10;;;1.40;99.70;;;;;;5072601;28;20459;-61
2022/02/27 07:46:07;;;;;;;26.80;6.67;;;1.80;99.70;;;;;;5073002;28;20458;-62
2022/02/27 07:48:35;;;;;;;16.70;6.00;;;2.00;99.70;;;;;;5073153;28;20446;-60
2022/02/27 07:51:02;;;;;;;17.53;7.13;;;2.00;99.70;;;;;;5072676;28;20442;-59
2022/02/27 07:53:29;;;;;;;19.50;8.60;;;2.10;99.70;;;;;;5073373;28;20544;-61
2022/02/27 07:55:55;;;;;;;15.40;6.90;;;2.20;99.70;;;;;;5073808;28;20485;-59
2022/02/27 07:58:22;;;;;;;15.47;6.30;;;2.20;99.70;;;;;;5069803;28;20968;-59
2022/02/27 08:00:49;;;;;;;15.10;6.37;;;2.30;99.70;;;;;;5057411;28;20968;-61
2022/02/27 08:03:16;;;;;;;28.13;9.67;;;2.40;99.70;;;;;;5067197;28;20461;-61
2022/02/27 08:05:44;;;;;;;16.83;7.10;;;2.40;99.70;;;;;;5073247;28;20836;-60
2022/02/27 08:08:11;;;;;;;15.43;6.93;;;2.60;99.70;;;;;;5073121;28;20443;-62
2022/02/27 08:10:37;;;;;;;14.07;6.60;;;2.60;99.70;;;;;;5067962;28;20886;-60
2022/02/27 08:13:04;;;;;;;14.60;6.50;;;2.80;99.70;;;;;;5067903;28;20462;-59
2022/02/27 08:15:31;;;;;;;16.40;7.03;;;2.80;99.70;;;;;;5072411;28;20475;-59
2022/02/27 08:17:58;;;;;;;15.07;6.90;;;3.20;99.70;;;;;;5073054;28;20446;-61
2022/02/27 08:20:24;;;;;;;14.83;7.30;;;3.70;99.70;;;;;;5073643;28;20927;-60
2022/02/27 08:22:52;;;;;;;14.97;7.00;;;4.20;99.70;;;;;;5072466;28;20451;-60
2022/02/27 08:25:19;;;;;;;17.30;7.23;;;4.50;99.70;;;;;;5070631;28;20470;-58
2022/02/27 08:27:46;;;;;;;13.83;5.97;;;5.20;99.70;;;;;;5062954;28;20450;-61
2022/02/27 08:30:13;;;;;;;13.10;6.43;;;5.80;99.70;;;;;;5072974;28;20522;-59
2022/02/27 08:32:40;;;;;;;16.40;6.27;;;6.40;99.70;;;;;;5072670;28;20447;-60
2022/02/27 08:35:08;;;;;;;15.10;6.50;;;7.20;99.70;;;;;;5072314;28;20463;-57
2022/02/27 08:37:34;;;;;;;11.93;5.97;;;7.20;99.70;;;;;;5072651;28;21189;-60
2022/02/27 08:40:03;;;;;;;13.17;5.93;;;7.60;99.70;;;;;;5072558;28;20445;-62
2022/02/27 08:42:31;;;;;;;11.20;5.80;;;7.80;99.70;;;;;;5072042;28;20447;-58
2022/02/27 08:44:58;;;;;;;14.27;6.80;;;8.10;99.70;;;;;;5071725;28;20836;-61
2022/02/27 08:47:24;;;;;;;12.70;6.20;;;8.40;99.70;;;;;;5072634;28;20443;-60
2022/02/27 08:49:51;;;;;;;14.30;6.47;;;8.30;99.70;;;;;;5072713;28;20453;-59
2022/02/27 08:52:18;;;;;;;11.00;6.03;;;8.80;99.70;;;;;;5066383;28;20447;-62
2022/02/27 08:54:48;;;;;;;16.10;6.80;;;9.20;99.70;;;;;;5052337;28;20494;-60
2022/02/27 08:57:16;;;;;;;11.07;6.00;;;8.80;99.70;;;;;;5052389;28;20479;-59
2022/02/27 08:59:42;;;;;;;14.80;6.80;;;8.30;99.70;;;;;;5051794;28;20443;-63
2022/02/27 09:02:09;;;;;;;14.53;6.70;;;7.90;99.70;;;;;;5052287;28;20440;-60
2022/02/27 09:04:36;;;;;;;14.10;6.00;;;7.80;99.70;;;;;;5070792;28;20493;-59
2022/02/27 09:07:03;;;;;;;16.50;6.47;;;7.90;99.70;;;;;;5061405;28;20478;-63
2022/02/27 09:09:29;;;;;;;11.73;6.13;;;7.80;99.70;;;;;;5051824;28;20451;-59
2022/02/27 09:11:57;;;;;;;12.00;5.90;;;8.30;99.70;;;;;;5069578;28;20458;-61
2022/02/27 09:14:25;;;;;;;11.60;5.60;;;8.60;99.70;;;;;;5070576;28;20439;-62
2022/02/27 09:16:52;;;;;;;11.20;5.67;;;9.40;98.80;;;;;;5070510;28;20486;-60
2022/02/27 09:19:19;;;;;;;13.57;5.67;;;9.70;97.40;;;;;;5061751;28;20470;-61
2022/02/27 09:21:46;;;;;;;12.67;5.77;;;9.40;97.60;;;;;;5070163;28;20451;-61
2022/02/27 09:24:13;;;;;;;13.87;6.00;;;9.50;97.00;;;;;;5071411;28;20447;-61
2022/02/27 09:26:41;;;;;;;11.03;5.70;;;9.30;97.20;;;;;;5071418;28;20957;-60
2022/02/27 09:29:08;;;;;;;10.70;5.80;;;8.90;98.40;;;;;;5071216;28;20442;-60
2022/02/27 09:31:36;;;;;;;10.10;5.97;;;8.60;97.70;;;;;;5071145;28;20476;-61
2022/02/27 09:34:03;;;;;;;18.13;8.87;;;8.70;98.20;;;;;;5071285;28;20450;-60
2022/02/27 09:36:30;;;;;;;13.63;6.00;;;9.20;98.10;;;;;;5070890;28;21009;-56
2022/02/27 09:38:56;;;;;;;10.70;5.10;;;9.20;96.30;;;;;;5070918;28;21117;-61
2022/02/27 09:41:23;;;;;;;11.60;6.00;;;8.90;95.80;;;;;;5070768;28;20450;-61
2022/02/27 09:43:53;;;;;;;10.30;5.77;;;9.40;95.80;;;;;;5071445;28;20443;-59
2022/02/27 09:46:20;;;;;;;10.70;5.30;;;9.40;94.30;;;;;;5069202;28;20462;-59
2022/02/27 09:48:49;;;;;;;11.50;5.33;;;9.00;94.90;;;;;;5068832;28;20478;-60
2022/02/27 09:51:16;;;;;;;9.93;5.00;;;9.20;95.20;;;;;;5070809;28;20440;-60
2022/02/27 09:53:43;;;;;;;11.03;5.30;;;9.70;93.10;;;;;;5066414;28;20454;-61
2022/02/27 09:56:10;;;;;;;10.70;5.17;;;9.90;91.90;;;;;;5067752;28;20482;-61
2022/02/27 09:58:37;;;;;;;13.97;5.27;;;9.30;92.70;;;;;;5067394;28;20458;-60
2022/02/27 10:01:04;;;;;;;10.30;5.10;;;9.70;92.30;;;;;;5067353;28;20858;-63
2022/02/27 10:03:32;;;;;;;11.30;5.30;;;10.50;91.80;;;;;;5066979;28;20463;-62
2022/02/27 10:06:05;;;;;;;7.77;4.63;;;10.00;91.90;;;;;;5070554;28;21051;-57
2022/02/27 10:08:40;;;;;;;13.23;5.10;;;9.20;91.00;;;;;;5063089;28;20458;-63
2022/02/27 10:11:08;;;;;;;10.60;5.53;;;9.00;92.80;;;;;;5063255;28;20983;-62
2022/02/27 10:13:36;;;;;;;11.30;6.00;;;9.00;94.00;;;;;;5063965;28;20478;-59
2022/02/27 10:16:08;;;;;;;8.73;5.20;;;8.50;95.20;;;;;;5061663;28;20544;-59
2022/02/27 10:18:39;;;;;;;12.40;5.50;;;8.20;95.70;;;;;;5065410;28;20459;-58
2022/02/27 10:21:19;;;;;;;11.53;5.00;;;7.80;97.70;;;;;;5069260;28;20462;-60
2022/02/27 10:23:56;;;;;;;12.00;5.20;;;7.60;98.20;;;;;;5058820;28;20455;-60
2022/02/27 10:26:24;;;;;;;10.77;4.90;;;7.60;97.70;;;;;;5069822;28;21013;-65
2022/02/27 10:29:08;;;;;;;11.87;5.90;;;7.40;97.10;;;;;;5059909;28;20455;-58
2022/02/27 10:31:35;;;;;;;10.97;4.63;;;7.30;97.70;;;;;;5067391;28;20438;-62
2022/02/27 10:34:13;;;;;;;9.27;4.50;;;7.00;96.70;;;;;;5064328;28;20435;-58
2022/02/27 10:36:55;;;;;;;9.90;4.37;;;6.90;96.10;;;;;;5069466;28;20514;-62
2022/02/27 10:39:32;;;;;;;8.70;4.40;;;6.90;96.70;;;;;;5065814;28;20564;-59
2022/02/27 10:42:16;;;;;;;15.03;5.00;;;6.80;96.30;;;;;;5065547;28;20455;-61
2022/02/27 10:44:45;;;;;;;11.70;4.60;;;6.90;96.90;;;;;;5065277;28;20506;-58
2022/02/27 10:47:14;;;;;;;6.87;4.30;;;6.90;95.80;;;;;;5064935;28;20945;-60
2022/02/27 10:49:42;;;;;;;9.90;4.63;;;6.80;95.90;;;;;;5069189;28;20459;-63
2022/02/27 10:52:21;;;;;;;11.10;4.40;;;7.00;95.20;;;;;;5066987;28;20455;-62
2022/02/27 10:54:49;;;;;;;6.70;3.57;;;7.00;96.20;;;;;;5063216;28;20849;-58
2022/02/27 10:57:28;;;;;;;9.83;4.67;;;6.90;94.10;;;;;;5073105;28;20479;-59
2022/02/27 10:59:56;;;;;;;10.00;4.60;;;7.00;94.50;;;;;;5061111;28;20446;-66
2022/02/27 11:02:24;;;;;;;9.43;3.97;;;6.90;93.70;;;;;;5069068;28;20865;-59
2022/02/27 11:04:51;;;;;;;7.57;3.73;;;6.70;91.90;;;;;;5068613;28;20843;-62
2022/02/27 11:07:18;;;;;;;9.97;4.40;;;6.60;92.40;;;;;;5070133;28;20969;-60
2022/02/27 11:09:46;;;;;;;7.83;4.10;;;6.60;93.10;;;;;;5070606;28;20438;-62
2022/02/27 11:12:14;;;;;;;9.70;3.93;;;6.90;94.60;;;;;;5070195;28;20451;-61
2022/02/27 11:14:42;;;;;;;8.20;4.00;;;6.80;91.70;;;;;;5069800;28;20495;-60
2022/02/27 11:17:11;;;;;;;8.77;3.90;;;6.80;93.40;;;;;;5069729;28;20565;-59
2022/02/27 11:19:38;;;;;;;7.20;4.00;;;7.00;93.60;;;;;;5070060;28;20953;-59
2022/02/27 11:22:06;;;;;;;7.87;3.70;;;7.00;91.80;;;;;;5070195;28;20482;-57
2022/02/27 11:24:35;;;;;;;7.03;3.80;;;6.80;91.50;;;;;;5066806;28;20494;-60
2022/02/27 11:27:05;;;;;;;9.10;4.03;;;6.80;93.10;;;;;;5073147;28;20446;-60
2022/02/27 11:29:32;;;;;;;6.47;3.93;;;6.90;93.20;;;;;;5073137;28;20451;-62
2022/02/27 11:32:00;;;;;;;7.43;4.10;;;6.90;91.90;;;;;;5073649;28;20453;-58
2022/02/27 11:34:30;;;;;;;9.43;4.87;;;6.60;92.50;;;;;;5074115;28;20450;-59
2022/02/27 11:36:57;;;;;;;7.57;4.17;;;6.80;94.60;;;;;;5072078;28;20588;-61
2022/02/27 11:42:09;;;;;;;7.53;4.20;;;6.70;94.60;;;;;;5073183;28;21283;-59
2022/02/27 11:44:38;;;;;;;6.50;3.80;;;6.70;93.50;;;;;;5073703;28;20466;-58
2022/02/27 11:47:08;;;;;;;10.07;4.33;;;6.60;92.20;;;;;;5073060;28;20442;-63
2022/02/27 11:49:36;;;;;;;8.70;4.63;;;6.60;91.90;;;;;;5063950;28;20538;-56
2022/02/27 11:52:09;;;;;;;7.10;4.07;;;6.70;92.00;;;;;;5054057;28;20443;-59
2022/02/27 11:54:45;;;;;;;10.17;4.43;;;6.70;93.40;;;;;;5064982;28;20490;-59
2022/02/27 11:57:18;;;;;;;9.10;4.67;;;6.80;93.40;;;;;;5056128;28;20494;-62
2022/02/27 11:59:54;;;;;;;13.30;4.70;;;6.80;93.10;;;;;;5069662;28;20454;-60
2022/02/27 12:02:23;;;;;;;12.77;4.30;;;6.70;93.00;;;;;;5063067;28;20454;-60
2022/02/27 12:04:51;;;;;;;11.00;4.80;;;6.70;93.90;;;;;;5071177;28;20474;-61
2022/02/27 12:07:17;;;;;;;10.10;4.90;;;6.80;94.50;;;;;;5072786;28;20970;-60
2022/02/27 12:10:02;;;;;;;9.70;4.60;;;6.80;94.50;;;;;;5073413;28;20447;-59
2022/02/27 12:12:49;;;;;;;11.60;4.90;;;6.80;94.00;;;;;;5072857;28;20482;-62
2022/02/27 12:15:20;;;;;;;11.83;4.30;;;6.90;94.50;;;;;;5071276;28;20471;-60
2022/02/27 12:17:55;;;;;;;7.90;4.10;;;7.00;93.70;;;;;;5072444;28;20482;-60
2022/02/27 12:20:41;;;;;;;8.40;4.37;;;6.80;92.90;;;;;;5072745;28;20828;-61
2022/02/27 12:23:09;;;;;;;8.00;4.30;;;7.00;92.60;;;;;;5071847;28;20868;-62
2022/02/27 12:25:38;;;;;;;8.57;4.70;;;6.90;92.80;;;;;;5071513;28;20532;-59
2022/02/27 12:28:07;;;;;;;8.60;4.50;;;6.90;92.50;;;;;;5072610;28;20443;-59
2022/02/27 12:30:34;;;;;;;8.93;4.80;;;6.90;93.20;;;;;;5072982;28;20447;-58
2022/02/27 12:33:07;;;;;;;9.43;4.53;;;6.80;92.00;;;;;;5073153;28;20450;-60
2022/02/27 12:35:34;;;;;;;9.47;4.77;;;6.90;92.50;;;;;;5072826;28;20876;-60
2022/02/27 12:38:04;;;;;;;8.80;4.57;;;7.00;92.50;;;;;;5072289;28;20514;-61
2022/02/27 12:40:32;;;;;;;8.57;4.50;;;6.90;92.00;;;;;;5073279;28;20533;-62
2022/02/27 12:43:03;;;;;;;8.10;4.57;;;6.80;91.80;;;;;;5072871;28;20498;-59
2022/02/27 12:45:34;;;;;;;7.70;4.67;;;6.90;91.90;;;;;;5072587;28;20459;-60
2022/02/27 12:48:09;;;;;;;9.23;4.60;;;6.80;91.80;;;;;;5072446;28;20470;-60
2022/02/27 12:50:45;;;;;;;8.17;4.53;;;7.00;92.20;;;;;;5072879;28;20499;-59
2022/02/27 12:53:13;;;;;;;7.47;4.40;;;7.00;91.00;;;;;;5072708;28;20434;-59
2022/02/27 12:55:40;;;;;;;11.10;4.50;;;7.00;92.40;;;;;;5072384;28;20466;-61